Time;durP1;ratioP1;P1;durP2;ratioP2;P2;SDS_P1;SDS_P2;PMS_P1;PMS_P2;Temp;Humidity;BMP_temperature;BMP_pressure;BME280_temperature;BME280_humidity;BME280_pressure;Samples;Min_cycle;Max_cycle;Signal;HPM_P1;HPM_P2
2023/10/29 00:02:25;;;;;;;3.72;1.17;;;;;;;;;;10069586;28;20037;-71
2023/10/29 00:07:17;;;;;;;6.80;2.08;;;;;;;;;;10056782;28;20045;-72
2023/10/29 00:12:09;;;;;;;1.27;1.08;;;;;;;;;;10069610;28;20176;-71
2023/10/29 00:17:01;;;;;;;3.42;1.08;;;;;;;;;;10068166;28;20037;-71
2023/10/29 00:21:53;;;;;;;3.70;1.30;;;;;;;;;;10069350;28;20431;-70
2023/10/29 00:26:45;;;;;;;1.35;1.20;;;;;;;;;;10068638;28;20413;-71
2023/10/29 00:31:37;;;;;;;1.73;1.10;;;;;;;;;;10068908;28;20041;-70
2023/10/29 00:36:28;;;;;;;2.92;1.13;;;;;;;;;;10069461;28;20033;-70
2023/10/29 00:41:21;;;;;;;2.33;1.00;;;;;;;;;;10068984;28;20061;-71
2023/10/29 00:46:15;;;;;;;1.27;1.17;;;;;;;;;;10068211;28;20361;-71
2023/10/29 00:51:06;;;;;;;2.55;1.13;;;;;;;;;;10068709;28;20041;-69
2023/10/29 00:55:59;;;;;;;3.85;1.60;;;;;;;;;;10067531;28;20520;-71
2023/10/29 01:00:52;;;;;;;2.63;1.48;;;;;;;;;;10067103;28;20065;-71
2023/10/29 01:05:45;;;;;;;1.80;0.93;;;;;;;;;;10068337;28;20049;-72
2023/10/29 01:10:38;;;;;;;2.95;1.20;;;;;;;;;;10066392;28;20455;-71
2023/10/29 01:15:30;;;;;;;2.30;1.25;;;;;;;;;;10067287;28;20417;-71
2023/10/29 01:20:22;;;;;;;2.05;1.02;;;;;;;;;;10067530;28;20466;-70
2023/10/29 01:25:14;;;;;;;3.03;0.95;;;;;;;;;;10065316;28;20087;-71
2023/10/29 01:30:06;;;;;;;3.47;1.98;;;;;;;;;;10065374;28;20124;-71
2023/10/29 01:34:58;;;;;;;1.35;0.85;;;;;;;;;;10066203;28;20487;-71
2023/10/29 01:39:50;;;;;;;3.05;1.25;;;;;;;;;;10063919;28;20108;-71
2023/10/29 01:44:42;;;;;;;2.67;1.08;;;;;;;;;;10065014;28;20068;-70
2023/10/29 01:49:34;;;;;;;2.50;1.10;;;;;;;;;;10066788;28;20436;-71
2023/10/29 01:54:26;;;;;;;2.15;1.40;;;;;;;;;;10044024;28;20072;-71
2023/10/29 01:59:18;;;;;;;1.20;0.90;;;;;;;;;;10028063;28;20042;-68
2023/10/29 02:04:11;;;;;;;3.42;1.70;;;;;;;;;;10025125;28;20079;-71
2023/10/29 02:09:03;;;;;;;2.92;1.20;;;;;;;;;;10029052;28;20096;-71
2023/10/29 02:13:55;;;;;;;6.43;2.70;;;;;;;;;;10026845;28;20054;-69
2023/10/29 02:18:47;;;;;;;2.08;1.20;;;;;;;;;;10026825;28;20041;-72
2023/10/29 02:23:39;;;;;;;1.63;1.23;;;;;;;;;;10028197;28;20145;-71
2023/10/29 02:28:31;;;;;;;4.47;1.38;;;;;;;;;;10027878;28;20420;-71
2023/10/29 02:33:23;;;;;;;6.35;2.35;;;;;;;;;;10026306;28;20487;-71
2023/10/29 02:38:18;;;;;;;5.68;1.77;;;;;;;;;;10027818;28;20464;-71
2023/10/29 02:43:10;;;;;;;2.33;1.30;;;;;;;;;;10027077;28;20046;-71
2023/10/29 02:48:02;;;;;;;4.85;1.60;;;;;;;;;;10041704;28;20046;-71
2023/10/29 02:52:54;;;;;;;1.55;1.08;;;;;;;;;;10025048;28;20049;-69
2023/10/29 02:57:46;;;;;;;7.20;1.65;;;;;;;;;;10028050;28;20133;-71
2023/10/29 03:02:39;;;;;;;6.60;2.08;;;;;;;;;;10026079;28;20049;-70
2023/10/29 03:07:31;;;;;;;3.53;1.30;;;;;;;;;;10041903;28;20380;-71
2023/10/29 03:12:23;;;;;;;11.20;2.15;;;;;;;;;;10026809;28;20384;-71
2023/10/29 03:17:15;;;;;;;3.95;1.42;;;;;;;;;;10026581;28;20048;-71
2023/10/29 03:22:07;;;;;;;6.25;1.63;;;;;;;;;;10026640;28;20046;-71
2023/10/29 03:26:59;;;;;;;3.53;1.13;;;;;;;;;;10026874;28;20045;-71
2023/10/29 03:31:51;;;;;;;4.13;1.42;;;;;;;;;;10026651;28;20050;-70
2023/10/29 03:36:43;;;;;;;2.58;1.45;;;;;;;;;;10025725;28;20038;-71
2023/10/29 03:41:34;;;;;;;2.45;1.40;;;;;;;;;;10025031;28;20057;-71
2023/10/29 03:46:26;;;;;;;1.85;1.25;;;;;;;;;;10026900;28;20116;-70
2023/10/29 03:51:18;;;;;;;4.82;1.83;;;;;;;;;;10025909;28;20038;-71
2023/10/29 03:56:10;;;;;;;4.85;1.58;;;;;;;;;;10025605;28;20496;-71
2023/10/29 04:01:02;;;;;;;2.85;1.50;;;;;;;;;;10047592;28;20046;-71
2023/10/29 04:05:55;;;;;;;1.92;1.70;;;;;;;;;;10048085;28;20112;-70
2023/10/29 04:10:48;;;;;;;4.00;1.50;;;;;;;;;;10033956;28;20074;-71
2023/10/29 04:15:40;;;;;;;1.67;1.00;;;;;;;;;;10032141;28;20029;-71
2023/10/29 04:20:32;;;;;;;3.58;1.10;;;;;;;;;;10032249;28;20049;-72
2023/10/29 04:25:24;;;;;;;2.25;1.10;;;;;;;;;;10031521;28;20107;-71
2023/10/29 04:30:15;;;;;;;2.97;1.27;;;;;;;;;;10033022;28;20038;-71
2023/10/29 04:35:08;;;;;;;4.22;2.05;;;;;;;;;;10034622;28;20505;-71
2023/10/29 04:39:59;;;;;;;2.60;1.27;;;;;;;;;;10030889;28;20124;-71
2023/10/29 04:44:51;;;;;;;3.47;1.48;;;;;;;;;;10031256;28;20053;-71
2023/10/29 04:49:43;;;;;;;4.20;1.40;;;;;;;;;;10030581;28;20050;-71
2023/10/29 04:54:36;;;;;;;6.70;2.38;;;;;;;;;;10030285;28;20042;-71
2023/10/29 04:59:28;;;;;;;7.97;2.10;;;;;;;;;;10032210;28;20100;-71
2023/10/29 05:04:20;;;;;;;8.75;2.78;;;;;;;;;;10028958;28;20065;-71
2023/10/29 05:09:12;;;;;;;5.35;2.47;;;;;;;;;;10029331;28;20041;-71
2023/10/29 05:14:04;;;;;;;4.38;2.88;;;;;;;;;;10030723;28;20057;-71
2023/10/29 05:18:56;;;;;;;2.97;2.78;;;;;;;;;;10030892;28;20080;-70
2023/10/29 05:23:47;;;;;;;6.05;2.83;;;;;;;;;;10029317;28;20056;-71
2023/10/29 05:28:39;;;;;;;5.57;2.92;;;;;;;;;;10031454;28;20046;-71
2023/10/29 05:33:32;;;;;;;5.40;3.60;;;;;;;;;;10029527;28;20050;-71
2023/10/29 05:38:24;;;;;;;3.97;3.38;;;;;;;;;;10029570;28;20046;-71
2023/10/29 05:43:16;;;;;;;4.97;3.45;;;;;;;;;;10029580;28;20053;-71
2023/10/29 05:48:07;;;;;;;3.70;3.35;;;;;;;;;;10029756;28;20215;-71
2023/10/29 05:52:59;;;;;;;6.03;4.07;;;;;;;;;;10035290;28;20038;-71
2023/10/29 05:57:52;;;;;;;10.43;4.93;;;;;;;;;;10054294;28;20053;-71
2023/10/29 06:02:44;;;;;;;7.25;5.28;;;;;;;;;;10065562;28;20152;-71
2023/10/29 06:07:37;;;;;;;5.85;4.95;;;;;;;;;;10058181;28;20447;-70
2023/10/29 06:12:29;;;;;;;13.05;10.75;;;;;;;;;;10065083;28;20136;-71
2023/10/29 06:17:21;;;;;;;13.05;10.02;;;;;;;;;;10065054;28;20041;-71
2023/10/29 06:22:18;;;;;;;13.73;10.68;;;;;;;;;;10062618;28;20061;-70
2023/10/29 06:27:09;;;;;;;15.75;5.15;;;;;;;;;;10065043;28;20120;-71
2023/10/29 06:32:01;;;;;;;10.68;6.72;;;;;;;;;;10065125;28;20140;-71
2023/10/29 06:36:53;;;;;;;10.95;6.65;;;;;;;;;;10056545;28;20046;-69
2023/10/29 06:41:45;;;;;;;6.40;4.57;;;;;;;;;;10064363;28;20679;-70
2023/10/29 06:46:37;;;;;;;9.30;3.92;;;;;;;;;;10058941;28;20463;-72
2023/10/29 06:51:29;;;;;;;12.38;9.65;;;;;;;;;;10063561;28;20052;-73
2023/10/29 06:56:21;;;;;;;17.35;12.05;;;;;;;;;;10072254;28;20353;-73
2023/10/29 07:01:13;;;;;;;7.78;5.28;;;;;;;;;;10075272;28;20041;-73
2023/10/29 07:06:06;;;;;;;8.38;7.68;;;;;;;;;;10064584;28;20411;-73
2023/10/29 07:10:58;;;;;;;12.10;10.82;;;;;;;;;;10063127;28;20045;-71
2023/10/29 07:15:51;;;;;;;12.57;9.48;;;;;;;;;;10063082;28;20041;-70
2023/10/29 07:20:43;;;;;;;15.75;13.48;;;;;;;;;;10059106;28;20041;-69
2023/10/29 07:25:35;;;;;;;40.55;28.88;;;;;;;;;;10059566;28;20045;-68
2023/10/29 07:30:27;;;;;;;14.20;10.57;;;;;;;;;;10059654;28;20111;-69
2023/10/29 07:35:20;;;;;;;21.17;15.75;;;;;;;;;;10069193;28;20130;-69
2023/10/29 07:40:12;;;;;;;23.48;20.98;;;;;;;;;;10071134;28;20053;-70
2023/10/29 07:45:05;;;;;;;12.25;10.85;;;;;;;;;;10065733;28;20053;-70
2023/10/29 07:49:58;;;;;;;11.70;9.18;;;;;;;;;;10070507;28;20056;-70
2023/10/29 07:54:50;;;;;;;13.55;7.82;;;;;;;;;;10071252;28;20099;-69
2023/10/29 07:59:42;;;;;;;10.82;7.05;;;;;;;;;;10069179;28;20042;-70
2023/10/29 08:04:34;;;;;;;9.52;7.38;;;;;;;;;;10069616;28;20053;-69
2023/10/29 08:09:26;;;;;;;9.98;7.78;;;;;;;;;;10071022;28;20095;-70
2023/10/29 08:14:18;;;;;;;18.38;8.48;;;;;;;;;;10070258;28;20168;-69
2023/10/29 08:19:10;;;;;;;12.18;10.27;;;;;;;;;;10070587;28;20033;-70
2023/10/29 08:24:02;;;;;;;16.92;12.32;;;;;;;;;;10070205;28;20136;-69
2023/10/29 08:28:54;;;;;;;18.58;11.93;;;;;;;;;;10069873;28;20485;-69
2023/10/29 08:33:46;;;;;;;19.45;15.23;;;;;;;;;;10069765;28;20080;-70
2023/10/29 08:38:38;;;;;;;21.17;18.83;;;;;;;;;;10069130;28;20045;-69
2023/10/29 08:43:29;;;;;;;22.98;20.77;;;;;;;;;;10068549;28;20041;-69
2023/10/29 08:48:22;;;;;;;23.88;20.33;;;;;;;;;;10065523;28;20494;-69
2023/10/29 08:53:14;;;;;;;21.88;18.58;;;;;;;;;;10054340;28;20055;-69
2023/10/29 08:58:06;;;;;;;22.05;18.40;;;;;;;;;;10048514;28;20385;-69
2023/10/29 09:02:58;;;;;;;24.60;17.98;;;;;;;;;;10068089;28;20077;-70
2023/10/29 09:07:50;;;;;;;23.50;16.33;;;;;;;;;;10067027;28;20453;-69
2023/10/29 09:12:42;;;;;;;16.98;15.18;;;;;;;;;;10067324;28;20107;-70
2023/10/29 09:17:33;;;;;;;19.95;17.45;;;;;;;;;;10068190;28;20071;-70
2023/10/29 09:22:25;;;;;;;17.77;15.98;;;;;;;;;;10066538;28;20060;-68
2023/10/29 09:27:17;;;;;;;17.90;16.05;;;;;;;;;;10066389;28;20582;-70
2023/10/29 09:32:09;;;;;;;17.98;16.08;;;;;;;;;;10066497;28;20072;-68
2023/10/29 09:37:01;;;;;;;15.93;13.75;;;;;;;;;;10066670;28;20096;-69
2023/10/29 09:41:54;;;;;;;17.02;11.35;;;;;;;;;;10066689;28;20076;-70
2023/10/29 09:46:53;;;;;;;13.20;11.60;;;;;;;;;;10053079;28;20050;-69
2023/10/29 09:51:45;;;;;;;13.02;10.73;;;;;;;;;;10058698;28;20076;-70
2023/10/29 09:56:39;;;;;;;11.32;9.90;;;;;;;;;;10064076;28;20384;-70
2023/10/29 10:01:31;;;;;;;11.07;9.90;;;;;;;;;;10065185;28;20468;-68
2023/10/29 10:06:41;;;;;;;20.42;10.20;;;;;;;;;;10064502;28;20415;-68
2023/10/29 10:11:33;;;;;;;11.88;9.60;;;;;;;;;;10063282;28;20152;-69
2023/10/29 10:16:25;;;;;;;14.35;10.32;;;;;;;;;;10064398;28;20491;-70
2023/10/29 10:21:20;;;;;;;10.73;9.57;;;;;;;;;;10063462;28;20073;-68
2023/10/29 10:26:13;;;;;;;14.88;9.95;;;;;;;;;;10063970;28;20045;-69
2023/10/29 10:31:14;;;;;;;12.07;9.98;;;;;;;;;;10063892;28;20033;-69
2023/10/29 10:36:07;;;;;;;12.75;9.10;;;;;;;;;;10055730;28;20041;-70
2023/10/29 10:40:59;;;;;;;10.25;9.20;;;;;;;;;;10063289;28;20107;-68
2023/10/29 10:45:51;;;;;;;12.73;10.90;;;;;;;;;;10063566;28;20067;-69
2023/10/29 10:50:43;;;;;;;13.55;9.50;;;;;;;;;;10064016;28;20042;-70
2023/10/29 10:55:35;;;;;;;14.82;10.13;;;;;;;;;;10063694;28;20033;-70
2023/10/29 11:00:49;;;;;;;11.90;9.20;;;;;;;;;;10063709;28;20132;-69
2023/10/29 11:05:41;;;;;;;13.43;9.52;;;;;;;;;;10063596;28;20140;-70
2023/10/29 11:10:33;;;;;;;14.55;9.65;;;;;;;;;;10071206;28;21076;-70
2023/10/29 11:15:25;;;;;;;32.53;29.05;;;;;;;;;;10071110;28;20050;-67
2023/10/29 11:20:36;;;;;;;13.15;9.52;;;;;;;;;;10071082;28;20045;-69
2023/10/29 11:25:28;;;;;;;11.10;9.32;;;;;;;;;;10070568;28;20044;-70
2023/10/29 11:30:21;;;;;;;15.30;9.05;;;;;;;;;;10070702;28;20321;-70
2023/10/29 11:35:20;;;;;;;15.00;7.95;;;;;;;;;;10070511;28;20107;-70
2023/10/29 11:40:24;;;;;;;9.55;7.43;;;;;;;;;;10070754;28;20129;-72
2023/10/29 11:45:25;;;;;;;9.85;7.88;;;;;;;;;;10069812;28;20053;-72
2023/10/29 11:50:17;;;;;;;9.88;7.32;;;;;;;;;;10069658;28;20064;-68
2023/10/29 11:55:10;;;;;;;11.73;7.85;;;;;;;;;;10065685;28;20081;-69
2023/10/29 12:00:03;;;;;;;10.10;8.82;;;;;;;;;;10064264;28;20042;-71
2023/10/29 12:04:56;;;;;;;12.80;8.70;;;;;;;;;;10059569;28;20049;-69
2023/10/29 12:09:59;;;;;;;13.90;9.27;;;;;;;;;;10062842;28;20125;-72
2023/10/29 12:14:50;;;;;;;12.32;9.07;;;;;;;;;;10050721;28;20775;-69
2023/10/29 12:19:45;;;;;;;15.60;8.95;;;;;;;;;;10056801;28;20455;-69
2023/10/29 12:24:37;;;;;;;11.27;9.90;;;;;;;;;;10061332;28;20045;-70
2023/10/29 12:29:28;;;;;;;10.23;8.05;;;;;;;;;;10067284;28;20519;-70
2023/10/29 12:34:21;;;;;;;11.85;8.90;;;;;;;;;;10064486;28;20041;-70
2023/10/29 12:39:13;;;;;;;11.55;8.82;;;;;;;;;;10068194;28;20471;-69
2023/10/29 12:44:14;;;;;;;18.20;12.75;;;;;;;;;;10065280;28;20427;-70
2023/10/29 12:49:12;;;;;;;10.35;9.18;;;;;;;;;;10067550;28;20491;-69
2023/10/29 12:54:17;;;;;;;12.15;9.20;;;;;;;;;;10060717;28;20088;-69
2023/10/29 12:59:09;;;;;;;13.77;9.30;;;;;;;;;;10061787;28;20096;-70
2023/10/29 13:04:02;;;;;;;9.98;8.98;;;;;;;;;;10065227;28;20101;-70
2023/10/29 13:08:53;;;;;;;10.43;9.32;;;;;;;;;;10063538;28;20384;-72
2023/10/29 13:13:45;;;;;;;11.27;10.10;;;;;;;;;;10049540;28;20361;-71
2023/10/29 13:18:54;;;;;;;11.35;9.90;;;;;;;;;;10035224;28;20766;-71
2023/10/29 13:23:46;;;;;;;16.30;10.55;;;;;;;;;;10025755;28;20208;-71
2023/10/29 13:28:38;;;;;;;18.48;11.70;;;;;;;;;;10029727;28;20037;-70
2023/10/29 13:33:30;;;;;;;14.23;10.85;;;;;;;;;;10053566;28;20038;-71
2023/10/29 13:38:24;;;;;;;15.68;11.43;;;;;;;;;;10049549;28;20503;-71
2023/10/29 13:43:16;;;;;;;17.65;15.48;;;;;;;;;;10038846;28;20054;-70
2023/10/29 13:48:08;;;;;;;13.93;11.95;;;;;;;;;;10024202;28;20061;-71
2023/10/29 13:53:00;;;;;;;19.45;15.32;;;;;;;;;;10025297;28;20069;-71
2023/10/29 13:57:51;;;;;;;21.15;16.08;;;;;;;;;;10022659;28;20060;-70
2023/10/29 14:02:43;;;;;;;17.00;15.20;;;;;;;;;;10028702;28;20104;-71
2023/10/29 14:07:35;;;;;;;17.67;14.23;;;;;;;;;;10028121;28;20145;-71
2023/10/29 14:12:28;;;;;;;21.50;13.00;;;;;;;;;;10029287;28;20096;-71
2023/10/29 14:17:20;;;;;;;18.63;15.00;;;;;;;;;;10027812;28;20057;-71
2023/10/29 14:22:12;;;;;;;16.48;11.35;;;;;;;;;;10027617;28;20042;-71
2023/10/29 14:27:04;;;;;;;12.43;10.82;;;;;;;;;;10025495;28;20050;-71
2023/10/29 14:31:56;;;;;;;20.08;13.07;;;;;;;;;;10032385;28;20045;-69
2023/10/29 14:36:48;;;;;;;36.47;29.50;;;;;;;;;;10040613;28;20045;-71
2023/10/29 14:41:40;;;;;;;15.00;12.95;;;;;;;;;;10039810;28;20065;-71
2023/10/29 14:46:31;;;;;;;19.70;12.48;;;;;;;;;;10043088;28;20108;-72
2023/10/29 14:51:23;;;;;;;19.30;15.55;;;;;;;;;;10032843;28;20490;-71
2023/10/29 14:56:16;;;;;;;18.42;15.57;;;;;;;;;;10029208;28;20033;-68
2023/10/29 15:01:07;;;;;;;17.98;13.98;;;;;;;;;;10042674;28;20053;-72
2023/10/29 15:05:59;;;;;;;18.38;15.45;;;;;;;;;;10032033;28;20408;-71
2023/10/29 15:10:52;;;;;;;17.30;14.10;;;;;;;;;;10031584;28;20441;-71
2023/10/29 15:15:44;;;;;;;39.50;30.10;;;;;;;;;;10041553;28;20123;-70
2023/10/29 15:20:36;;;;;;;20.02;15.32;;;;;;;;;;10033996;28;20033;-71
2023/10/29 15:25:45;;;;;;;25.48;18.67;;;;;;;;;;10052211;28;20072;-70
2023/10/29 15:30:36;;;;;;;20.13;17.40;;;;;;;;;;10031225;28;20415;-71
2023/10/29 15:35:32;;;;;;;24.17;18.70;;;;;;;;;;10037895;28;20112;-70
2023/10/29 15:40:24;;;;;;;17.00;13.70;;;;;;;;;;10033839;28;20038;-71
2023/10/29 15:45:16;;;;;;;23.83;18.70;;;;;;;;;;10039925;28;20046;-70
2023/10/29 15:50:08;;;;;;;27.75;18.85;;;;;;;;;;10026910;28;20427;-71
2023/10/29 15:55:03;;;;;;;24.58;18.73;;;;;;;;;;10037132;28;20145;-72
2023/10/29 15:59:58;;;;;;;23.58;18.90;;;;;;;;;;10035212;28;20061;-72
2023/10/29 16:04:50;;;;;;;20.13;14.52;;;;;;;;;;10034912;28;20065;-71
2023/10/29 16:09:42;;;;;;;20.77;15.80;;;;;;;;;;10040647;28;20128;-70
2023/10/29 16:14:35;;;;;;;16.77;14.43;;;;;;;;;;10039928;28;20052;-69
2023/10/29 16:19:27;;;;;;;22.73;20.42;;;;;;;;;;10034495;28;20038;-72
2023/10/29 16:24:18;;;;;;;24.88;20.13;;;;;;;;;;10060026;28;20096;-72
2023/10/29 16:29:14;;;;;;;18.42;16.48;;;;;;;;;;10052065;28;20048;-72
2023/10/29 16:34:07;;;;;;;20.33;14.10;;;;;;;;;;10045082;28;20080;-70
2023/10/29 16:38:59;;;;;;;16.60;12.40;;;;;;;;;;10036635;28;20041;-70
2023/10/29 16:43:54;;;;;;;20.25;14.00;;;;;;;;;;10034442;28;20077;-72
2023/10/29 16:48:47;;;;;;;19.23;14.38;;;;;;;;;;10035375;28;20042;-71
2023/10/29 16:53:39;;;;;;;20.48;12.90;;;;;;;;;;10031450;28;20464;-72
2023/10/29 16:58:31;;;;;;;21.10;14.18;;;;;;;;;;10071643;28;20060;-71
2023/10/29 17:03:24;;;;;;;25.75;16.65;;;;;;;;;;10061921;28;20459;-70
2023/10/29 17:08:16;;;;;;;31.45;23.58;;;;;;;;;;10041429;28;20099;-69
2023/10/29 17:13:08;;;;;;;19.27;14.43;;;;;;;;;;10039201;28;20542;-70
2023/10/29 17:18:00;;;;;;;17.88;14.23;;;;;;;;;;10045717;28;20087;-68
2023/10/29 17:22:52;;;;;;;23.42;15.20;;;;;;;;;;10044079;28;20052;-68
2023/10/29 17:27:44;;;;;;;20.83;16.02;;;;;;;;;;10036307;28;20034;-68
2023/10/29 17:32:36;;;;;;;23.40;16.88;;;;;;;;;;10051056;28;20069;-68
2023/10/29 17:37:27;;;;;;;20.65;13.20;;;;;;;;;;10044501;28;20038;-69
2023/10/29 17:42:22;;;;;;;17.88;14.30;;;;;;;;;;10056605;28;20165;-66
2023/10/29 17:47:15;;;;;;;22.65;14.55;;;;;;;;;;10033030;28;20045;-69
2023/10/29 17:52:06;;;;;;;22.50;14.88;;;;;;;;;;10058245;28;20049;-71
2023/10/29 17:56:58;;;;;;;20.65;16.60;;;;;;;;;;10040326;28;20241;-69
2023/10/29 18:01:50;;;;;;;20.92;15.82;;;;;;;;;;10035767;28;20055;-71
2023/10/29 18:06:48;;;;;;;16.83;11.48;;;;;;;;;;10034168;28;20547;-68
2023/10/29 18:11:40;;;;;;;16.65;13.43;;;;;;;;;;10032226;28;20068;-70
2023/10/29 18:16:32;;;;;;;23.67;15.77;;;;;;;;;;10051864;28;20043;-70
2023/10/29 18:21:24;;;;;;;23.75;18.67;;;;;;;;;;10056373;28;20140;-69
2023/10/29 18:26:16;;;;;;;21.00;16.52;;;;;;;;;;10049414;28;20056;-70
2023/10/29 18:31:10;;;;;;;19.25;14.95;;;;;;;;;;10065064;28;20054;-69
2023/10/29 18:36:09;;;;;;;20.58;15.15;;;;;;;;;;10051604;28;20061;-71
2023/10/29 18:41:01;;;;;;;20.60;17.38;;;;;;;;;;10064442;28;20045;-70
2023/10/29 18:45:53;;;;;;;16.00;14.30;;;;;;;;;;10063005;28;20049;-70
2023/10/29 18:50:45;;;;;;;17.42;14.90;;;;;;;;;;10063983;28;20046;-71
2023/10/29 18:55:37;;;;;;;23.55;16.65;;;;;;;;;;10063560;28;20046;-71
2023/10/29 19:00:29;;;;;;;23.13;14.98;;;;;;;;;;10058207;28;20083;-71
2023/10/29 19:05:21;;;;;;;26.92;18.88;;;;;;;;;;10028358;28;20046;-72
2023/10/29 19:10:13;;;;;;;21.40;16.33;;;;;;;;;;10051357;28;20498;-70
2023/10/29 19:15:06;;;;;;;20.65;16.25;;;;;;;;;;10063206;28;20124;-71
2023/10/29 19:19:58;;;;;;;17.23;14.88;;;;;;;;;;10058900;28;20045;-70
2023/10/29 19:24:50;;;;;;;19.73;16.13;;;;;;;;;;10053912;28;20069;-71
2023/10/29 19:29:42;;;;;;;23.55;15.88;;;;;;;;;;10052710;28;20056;-71
2023/10/29 19:34:34;;;;;;;13.35;11.55;;;;;;;;;;10069884;28;20045;-71
2023/10/29 19:39:26;;;;;;;18.85;13.13;;;;;;;;;;10070882;28;20422;-71
2023/10/29 19:44:18;;;;;;;20.23;16.17;;;;;;;;;;10064703;28;20041;-71
2023/10/29 19:49:10;;;;;;;20.63;15.27;;;;;;;;;;10064326;28;20416;-73
2023/10/29 19:54:02;;;;;;;18.25;13.55;;;;;;;;;;10068373;28;20065;-71
2023/10/29 19:58:55;;;;;;;20.60;14.73;;;;;;;;;;10066063;28;20041;-72
2023/10/29 20:03:48;;;;;;;26.23;17.05;;;;;;;;;;10069269;28;20049;-71
2023/10/29 20:08:41;;;;;;;27.95;18.85;;;;;;;;;;10053992;28;20456;-71
2023/10/29 20:13:34;;;;;;;15.10;13.07;;;;;;;;;;10058693;28;20044;-70
2023/10/29 20:18:26;;;;;;;22.13;15.27;;;;;;;;;;10064858;28;20124;-72
2023/10/29 20:23:19;;;;;;;18.23;15.05;;;;;;;;;;10063548;28;20037;-70
2023/10/29 20:28:11;;;;;;;20.48;16.27;;;;;;;;;;10065749;28;20052;-71
2023/10/29 20:33:03;;;;;;;23.30;16.45;;;;;;;;;;10065834;28;20088;-72
2023/10/29 20:37:55;;;;;;;24.40;17.15;;;;;;;;;;10066511;28;20055;-69
2023/10/29 20:42:50;;;;;;;24.75;19.90;;;;;;;;;;10063790;28;20093;-70
2023/10/29 20:47:42;;;;;;;24.48;19.98;;;;;;;;;;10065025;28;20052;-70
2023/10/29 20:52:34;;;;;;;30.20;21.17;;;;;;;;;;10064016;28;20188;-72
2023/10/29 20:57:26;;;;;;;36.30;30.92;;;;;;;;;;10054571;28;20462;-73
2023/10/29 21:02:18;;;;;;;27.52;23.38;;;;;;;;;;10054305;28;20045;-72
2023/10/29 21:07:10;;;;;;;34.47;26.75;;;;;;;;;;10060110;28;20088;-72
2023/10/29 21:12:02;;;;;;;37.03;28.65;;;;;;;;;;10067104;28;20357;-72
2023/10/29 21:16:54;;;;;;;37.45;26.15;;;;;;;;;;10067563;28;20663;-71
2023/10/29 21:21:46;;;;;;;31.17;24.77;;;;;;;;;;10066762;28;20073;-72
2023/10/29 21:26:38;;;;;;;38.15;25.73;;;;;;;;;;10066768;28;20111;-73
2023/10/29 21:31:30;;;;;;;31.73;26.65;;;;;;;;;;10066196;28;20107;-72
2023/10/29 21:36:22;;;;;;;32.88;24.65;;;;;;;;;;10066524;28;20107;-71
2023/10/29 21:41:15;;;;;;;36.90;26.98;;;;;;;;;;10066829;28;20051;-72
2023/10/29 21:46:07;;;;;;;51.00;32.30;;;;;;;;;;10065624;28;20061;-70
2023/10/29 21:51:00;;;;;;;47.22;32.88;;;;;;;;;;10065289;28;20436;-70
2023/10/29 21:55:52;;;;;;;46.13;31.17;;;;;;;;;;10064902;28;20057;-70
2023/10/29 22:00:55;;;;;;;43.08;30.67;;;;;;;;;;10065750;28;20038;-74
2023/10/29 22:05:56;;;;;;;47.97;33.05;;;;;;;;;;10064198;28;20054;-73
2023/10/29 22:10:57;;;;;;;49.78;34.38;;;;;;;;;;10063030;28;20041;-72
2023/10/29 22:15:49;;;;;;;59.03;35.47;;;;;;;;;;10062042;28;20088;-72
2023/10/29 22:20:41;;;;;;;53.72;35.55;;;;;;;;;;10061085;28;20046;-73
2023/10/29 22:25:36;;;;;;;43.15;30.10;;;;;;;;;;10065076;28;20053;-73
2023/10/29 22:30:27;;;;;;;44.50;31.60;;;;;;;;;;10065111;28;20076;-72
2023/10/29 22:35:19;;;;;;;46.58;32.72;;;;;;;;;;10064656;28;20049;-72
2023/10/29 22:40:12;;;;;;;53.63;32.78;;;;;;;;;;10065274;28;20045;-72
2023/10/29 22:45:04;;;;;;;52.53;34.05;;;;;;;;;;10062916;28;20049;-71
2023/10/29 22:49:56;;;;;;;53.80;36.08;;;;;;;;;;10062644;28;20076;-72
2023/10/29 22:54:48;;;;;;;52.97;31.98;;;;;;;;;;10064465;28;20049;-73
2023/10/29 22:59:40;;;;;;;44.17;30.92;;;;;;;;;;10064553;28;20476;-73
2023/10/29 23:04:32;;;;;;;47.13;33.05;;;;;;;;;;10063125;28;20096;-72
2023/10/29 23:09:24;;;;;;;47.55;32.92;;;;;;;;;;10064269;28;20107;-71
2023/10/29 23:14:18;;;;;;;39.33;29.95;;;;;;;;;;10062885;28;20052;-73
2023/10/29 23:19:10;;;;;;;44.15;30.80;;;;;;;;;;10064190;28;20472;-73
2023/10/29 23:24:02;;;;;;;40.42;28.13;;;;;;;;;;10063817;28;20064;-72
2023/10/29 23:28:54;;;;;;;44.42;29.63;;;;;;;;;;10064177;28;20136;-73
2023/10/29 23:33:46;;;;;;;49.35;31.42;;;;;;;;;;10062674;28;20041;-73
2023/10/29 23:38:38;;;;;;;44.25;30.02;;;;;;;;;;10063684;28;20064;-73
2023/10/29 23:43:30;;;;;;;45.63;30.73;;;;;;;;;;10063521;28;20087;-72
2023/10/29 23:48:22;;;;;;;42.83;28.98;;;;;;;;;;10064595;28;20380;-73
2023/10/29 23:53:13;;;;;;;43.35;29.83;;;;;;;;;;10062621;28;20049;-73
2023/10/29 23:58:05;;;;;;;45.83;30.42;;;;;;;;;;10063346;28;20042;-72
